createdAt,value
2023-02-11T00:00:08.536Z,101435.02
2023-02-11T00:01:14.315Z,101431.62
2023-02-11T00:02:16.275Z,101425.55
2023-02-11T00:03:18.397Z,101430.78
2023-02-11T00:04:20.435Z,101417.78
2023-02-11T00:05:22.405Z,101430.78
2023-02-11T00:06:26.818Z,101420.33
2023-02-11T00:07:29.857Z,101424.69
2023-02-11T00:08:31.736Z,101418.60
2023-02-11T00:09:33.622Z,101424.72
2023-02-11T00:10:35.600Z,101424.70
2023-02-11T00:11:37.518Z,101427.27
2023-02-11T00:12:40.572Z,101424.65
2023-02-11T00:13:44.170Z,101424.70
2023-02-11T00:14:46.325Z,101423.00
2023-02-11T00:15:49.305Z,101424.67
2023-02-11T00:16:51.921Z,101421.19
2023-02-11T00:17:53.872Z,101420.31
2023-02-11T00:18:55.967Z,101420.36
2023-02-11T00:19:58.538Z,101415.10
2023-02-11T00:21:06.645Z,101420.29
2023-02-11T00:22:08.685Z,101422.03
2023-02-11T00:23:10.952Z,101424.67
2023-02-11T00:24:12.996Z,101429.89
2023-02-11T00:25:14.899Z,101428.19
2023-02-11T00:26:19.787Z,101427.30
2023-02-11T00:27:21.998Z,101429.12
2023-02-11T00:28:24.154Z,101422.98
2023-02-11T00:29:26.341Z,101424.67
2023-02-11T00:30:28.723Z,101416.86
2023-02-11T00:31:31.175Z,101423.00
2023-02-11T00:32:33.179Z,101422.96
2023-02-11T00:33:35.043Z,101426.44
2023-02-11T00:34:37.521Z,101429.91
2023-02-11T00:35:39.459Z,101430.75
2023-02-11T00:36:41.843Z,101427.27
2023-02-11T00:37:44.118Z,101430.86
2023-02-11T00:38:47.125Z,101426.39
2023-02-11T00:39:49.023Z,101428.99
2023-02-11T00:40:50.998Z,101422.06
2023-02-11T00:41:52.897Z,101416.86
2023-02-11T00:42:54.769Z,101416.90
2023-02-11T00:43:56.794Z,101415.16
2023-02-11T00:44:58.694Z,101407.36
2023-02-11T00:46:00.644Z,101412.58
2023-02-11T00:47:02.801Z,101411.66
2023-02-11T00:48:04.987Z,101412.55
2023-02-11T00:49:06.988Z,101412.52
2023-02-11T00:50:09.869Z,101415.14
2023-02-11T00:51:12.602Z,101415.16
2023-02-11T00:52:14.494Z,101411.70
2023-02-11T00:53:16.468Z,101420.31
2023-02-11T00:54:18.437Z,101418.55
2023-02-11T00:55:20.588Z,101418.56
2023-02-11T00:56:23.181Z,101409.05
2023-02-11T00:57:25.919Z,101410.77
2023-02-11T00:58:28.293Z,101413.38
2023-02-11T00:59:30.178Z,101407.39
2023-02-11T01:00:32.494Z,101408.18
2023-02-11T01:01:34.672Z,101404.66
2023-02-11T01:02:36.972Z,101413.34
2023-02-11T01:03:40.090Z,101404.73
2023-02-11T01:04:42.372Z,101406.42
2023-02-11T01:05:44.298Z,101406.46
2023-02-11T01:06:46.378Z,101396.02
2023-02-11T01:07:48.279Z,101405.65
2023-02-11T01:08:50.159Z,101396.05
2023-02-11T01:09:52.132Z,101403.02
2023-02-11T01:10:57.000Z,101402.94
2023-02-11T01:11:59.212Z,101410.04
2023-02-11T01:13:01.395Z,101411.73
2023-02-11T01:14:03.601Z,101403.84
2023-02-11T01:15:07.938Z,101412.52
2023-02-11T01:16:11.932Z,101415.14
2023-02-11T01:17:14.896Z,101409.04
2023-02-11T01:18:16.940Z,101414.19
2023-02-11T01:19:19.072Z,101407.23
2023-02-11T01:20:23.961Z,101406.42
2023-02-11T01:21:26.621Z,101409.80
2023-02-11T01:22:28.621Z,101402.91
2023-02-11T01:23:30.966Z,101413.34
2023-02-11T01:24:33.279Z,101409.72
2023-02-11T01:25:35.328Z,101410.58
2023-02-11T01:26:38.218Z,101414.09
2023-02-11T01:27:40.732Z,101406.33
2023-02-11T01:28:42.823Z,101413.23
2023-02-11T01:29:44.722Z,101422.78
2023-02-11T01:30:47.767Z,101415.78
2023-02-11T01:31:49.858Z,101404.47
2023-02-11T01:32:51.979Z,101411.44
2023-02-11T01:33:53.966Z,101413.20
2023-02-11T01:34:56.503Z,101405.36
2023-02-11T01:36:05.303Z,101405.36
2023-02-11T01:37:07.287Z,101408.03
2023-02-11T01:38:15.820Z,101408.89
2023-02-11T01:39:18.416Z,101412.36
2023-02-11T01:40:20.614Z,101403.66
2023-02-11T01:41:22.613Z,101418.44
2023-02-11T01:42:25.213Z,101412.41
2023-02-11T01:43:30.221Z,101408.97
2023-02-11T01:44:35.735Z,101411.62
2023-02-11T01:45:47.704Z,101409.02
2023-02-11T01:46:51.420Z,101408.98
2023-02-11T01:47:53.502Z,101415.10
2023-02-11T01:49:11.358Z,101407.30
2023-02-11T01:50:14.771Z,101415.10
2023-02-11T01:51:23.398Z,101400.33
2023-02-11T01:52:31.990Z,101406.31
2023-02-11T01:53:38.194Z,101401.19
2023-02-11T01:54:43.955Z,101404.59
2023-02-11T01:55:46.082Z,101398.44
2023-02-11T01:56:51.516Z,101395.91
2023-02-11T01:57:57.204Z,101393.31
2023-02-11T01:59:03.168Z,101394.19
2023-02-11T02:00:24.608Z,101394.11
2023-02-11T02:01:28.936Z,101391.52
2023-02-11T02:04:00.646Z,101393.45
2023-02-11T02:05:09.676Z,101396.83
2023-02-11T02:06:18.547Z,101390.78
2023-02-11T02:09:00.915Z,101392.61
2023-02-11T02:10:06.774Z,101390.78
2023-02-11T02:11:09.644Z,101392.47
2023-02-11T02:12:11.653Z,101388.11
2023-02-11T02:13:14.333Z,101387.25
2023-02-11T02:14:16.979Z,101376.79
2023-02-11T02:15:28.610Z,101383.75
2023-02-11T02:16:36.217Z,101375.03
2023-02-11T02:17:42.045Z,101369.00
2023-02-11T02:18:59.802Z,101376.73
2023-02-11T02:20:12.027Z,101378.48
2023-02-11T02:21:23.596Z,101382.91
2023-02-11T02:22:41.277Z,101375.87
2023-02-11T02:23:53.013Z,101378.55
2023-02-11T02:25:17.071Z,101370.77
2023-02-11T02:26:39.513Z,101375.97
2023-02-11T02:27:51.498Z,101374.28
2023-02-11T02:29:08.120Z,101371.59
2023-02-11T02:30:20.393Z,101368.08
2023-02-11T02:31:42.995Z,101368.95
2023-02-11T02:33:22.367Z,101370.71
2023-02-11T02:34:31.635Z,101375.09
2023-02-11T02:35:46.528Z,101371.63
2023-02-11T02:38:14.110Z,101358.69
2023-02-11T02:39:22.792Z,101368.18
2023-02-11T02:42:01.950Z,101370.00
2023-02-11T02:43:06.123Z,101371.63
2023-02-11T02:44:08.730Z,101370.77
2023-02-11T02:45:13.077Z,101373.38
2023-02-11T02:46:22.309Z,101372.53
2023-02-11T02:47:24.333Z,101359.42
2023-02-11T02:48:32.760Z,101374.24
2023-02-11T02:49:34.669Z,101371.63
2023-02-11T02:50:37.618Z,101377.72
2023-02-11T02:52:01.548Z,101375.10
2023-02-11T02:53:13.283Z,101374.28
2023-02-11T02:54:35.668Z,101376.79
2023-02-11T02:55:41.403Z,101375.05
2023-02-11T02:57:11.839Z,101374.20
2023-02-11T02:58:26.765Z,101371.63
2023-02-11T02:59:47.866Z,101380.27
2023-02-11T03:01:15.280Z,101371.63
2023-02-11T03:02:38.551Z,101366.42
2023-02-11T03:03:56.045Z,101369.88
2023-02-11T03:05:20.146Z,101370.71
2023-02-11T03:06:31.820Z,101369.81
2023-02-11T03:07:55.929Z,101371.52
2023-02-11T03:09:10.312Z,101375.03
2023-02-11T03:10:15.561Z,101374.22
2023-02-11T03:11:19.801Z,101381.12
2023-02-11T03:12:23.812Z,101372.41
2023-02-11T03:13:29.496Z,101375.82
2023-02-11T03:14:33.012Z,101378.41
2023-02-11T03:15:44.321Z,101376.75
2023-02-11T03:16:48.136Z,101370.69
2023-02-11T03:17:53.597Z,101371.50
2023-02-11T03:20:21.250Z,101368.98
2023-02-11T03:21:24.663Z,101369.76
2023-02-11T03:22:36.208Z,101368.02
2023-02-11T03:23:53.463Z,101373.20
2023-02-11T03:24:56.183Z,101369.72
2023-02-11T03:26:20.398Z,101371.59
2023-02-11T03:27:34.846Z,101360.23
2023-02-11T03:28:55.910Z,101360.20
2023-02-11T03:31:34.301Z,101352.54
2023-02-11T03:32:39.851Z,101355.91
2023-02-11T03:34:02.671Z,101354.14
2023-02-11T03:35:08.352Z,101355.05
2023-02-11T03:36:14.360Z,101352.41
2023-02-11T03:37:23.170Z,101342.82
2023-02-11T03:38:34.977Z,101347.20
2023-02-11T03:39:41.131Z,101340.27
2023-02-11T03:40:44.491Z,101348.89
2023-02-11T03:41:49.238Z,101348.84
2023-02-11T03:43:09.818Z,101345.44
2023-02-11T03:44:16.016Z,101345.48
2023-02-11T03:45:22.444Z,101346.34
2023-02-11T03:46:34.215Z,101340.36
2023-02-11T03:47:39.937Z,101340.20
2023-02-11T03:48:46.592Z,101341.10
2023-02-11T03:49:51.215Z,101342.00
2023-02-11T03:50:54.891Z,101343.69
2023-02-11T03:51:59.552Z,101336.80
2023-02-11T03:53:02.902Z,101332.42
2023-02-11T03:54:08.650Z,101334.25
2023-02-11T03:55:17.082Z,101334.22
2023-02-11T03:56:23.084Z,101327.26
2023-02-11T03:57:25.242Z,101326.43
2023-02-11T03:58:27.228Z,101318.63
2023-02-11T03:59:29.099Z,101314.31
2023-02-11T04:00:35.010Z,101310.81
2023-02-11T04:01:37.152Z,101315.10
2023-02-11T04:02:40.232Z,101309.08
2023-02-11T04:03:43.740Z,101307.31
2023-02-11T04:04:46.862Z,101316.02
2023-02-11T04:05:49.130Z,101305.63
2023-02-11T04:06:52.846Z,101301.30
2023-02-11T04:07:55.095Z,101308.20
2023-02-11T04:08:57.114Z,101320.31
2023-02-11T04:10:00.511Z,101307.35
2023-02-11T04:11:03.327Z,101303.91
2023-02-11T04:12:06.888Z,101303.00
2023-02-11T04:13:08.794Z,101307.27
2023-02-11T04:14:10.814Z,101306.44
2023-02-11T04:15:13.502Z,101301.29
2023-02-11T04:16:15.952Z,101292.64
2023-02-11T04:17:18.182Z,101292.59
2023-02-11T04:18:20.098Z,101297.80
2023-02-11T04:19:22.218Z,101290.87
2023-02-11T04:20:24.191Z,101290.01
2023-02-11T04:21:26.068Z,101292.61
2023-02-11T04:22:27.978Z,101291.77
2023-02-11T04:23:29.889Z,101294.33
2023-02-11T04:24:32.064Z,101296.09
2023-02-11T04:25:34.097Z,101296.12
2023-02-11T04:26:36.188Z,101296.91
2023-02-11T04:27:38.372Z,101305.58
2023-02-11T04:28:40.250Z,101310.80
2023-02-11T04:29:43.637Z,101301.34
2023-02-11T04:30:45.891Z,101296.12
2023-02-11T04:31:49.282Z,101291.81
2023-02-11T04:32:51.611Z,101295.26
2023-02-11T04:33:53.527Z,101290.97
2023-02-11T04:34:55.446Z,101293.57
2023-02-11T04:35:57.308Z,101293.59
2023-02-11T04:36:59.610Z,101295.33
2023-02-11T04:38:01.469Z,101295.26
2023-02-11T04:39:04.466Z,101295.29
2023-02-11T04:40:08.474Z,101291.88
2023-02-11T04:41:10.382Z,101292.77
2023-02-11T04:42:12.616Z,101285.83
2023-02-11T04:43:14.711Z,101281.53
2023-02-11T04:44:18.385Z,101286.72
2023-02-11T04:45:20.282Z,101288.45
2023-02-11T04:46:22.722Z,101282.33
2023-02-11T04:47:24.926Z,101277.14
2023-02-11T04:48:26.930Z,101275.41
2023-02-11T04:49:28.960Z,101276.30
2023-02-11T04:50:31.152Z,101276.30
2023-02-11T04:51:33.747Z,101274.58
2023-02-11T04:52:35.632Z,101271.13
2023-02-11T04:53:37.883Z,101265.95
2023-02-11T04:54:40.364Z,101260.70
2023-02-11T04:55:42.368Z,101255.46
2023-02-11T04:56:44.619Z,101257.16
2023-02-11T04:57:46.591Z,101263.30
2023-02-11T04:58:48.790Z,101265.88
2023-02-11T04:59:50.664Z,101257.93
2023-02-11T05:00:52.950Z,101258.73
2023-02-11T05:01:54.979Z,101256.94
2023-02-11T05:02:56.855Z,101256.19
2023-02-11T05:03:59.026Z,101250.93
2023-02-11T05:05:01.791Z,101253.59
2023-02-11T05:06:05.230Z,101253.58
2023-02-11T05:07:07.156Z,101254.47
2023-02-11T05:08:10.547Z,101255.30
2023-02-11T05:09:13.671Z,101250.05
2023-02-11T05:10:16.259Z,101250.05
2023-02-11T05:11:21.099Z,101253.59
2023-02-11T05:12:23.215Z,101245.80
2023-02-11T05:13:25.081Z,101242.39
2023-02-11T05:14:27.110Z,101246.73
2023-02-11T05:15:29.397Z,101256.25
2023-02-11T05:16:31.952Z,101253.65
2023-02-11T05:17:34.000Z,101251.96
2023-02-11T05:18:39.541Z,101250.22
2023-02-11T05:19:42.278Z,101252.79
2023-02-11T05:20:45.057Z,101256.23
2023-02-11T05:22:01.433Z,101250.20
2023-02-11T05:22:51.122Z,101246.77
2023-02-11T05:23:53.107Z,101246.78
2023-02-11T05:24:55.016Z,101247.64
2023-02-11T05:25:56.891Z,101257.19
2023-02-11T05:27:01.276Z,101246.77
2023-02-11T05:28:04.859Z,101251.96
2023-02-11T05:29:07.011Z,101250.27
2023-02-11T05:30:10.777Z,101248.45
2023-02-11T05:31:12.860Z,101253.61
2023-02-11T05:32:15.248Z,101252.75
2023-02-11T05:33:17.150Z,101250.16
2023-02-11T05:34:20.044Z,101254.52
2023-02-11T05:35:22.656Z,101250.16
2023-02-11T05:36:24.850Z,101251.90
2023-02-11T05:37:26.823Z,101251.90
2023-02-11T05:38:29.263Z,101252.72
2023-02-11T05:39:31.260Z,101254.48
2023-02-11T05:40:33.679Z,101246.67
2023-02-11T05:41:35.892Z,101246.70
2023-02-11T05:42:38.308Z,101246.70
2023-02-11T05:43:40.215Z,101246.67
2023-02-11T05:44:42.193Z,101247.52
2023-02-11T05:45:44.410Z,101248.39
2023-02-11T05:46:46.630Z,101241.47
2023-02-11T05:47:48.610Z,101248.39
2023-02-11T05:48:50.482Z,101250.99
2023-02-11T05:49:54.730Z,101249.23
2023-02-11T05:50:58.567Z,101251.01
2023-02-11T05:52:00.833Z,101246.66
2023-02-11T05:53:02.927Z,101248.39
2023-02-11T05:54:05.423Z,101247.50
2023-02-11T05:55:07.721Z,101252.72
2023-02-11T05:56:10.242Z,101245.70
2023-02-11T05:57:12.845Z,101243.17
2023-02-11T05:58:14.818Z,101248.36
2023-02-11T05:59:17.101Z,101237.99
2023-02-11T06:00:19.791Z,101239.59
2023-02-11T06:01:21.723Z,101245.75
2023-02-11T06:02:23.755Z,101242.23
2023-02-11T06:03:25.805Z,101240.47
2023-02-11T06:04:28.254Z,101236.19
2023-02-11T06:05:31.278Z,101233.50
2023-02-11T06:06:33.466Z,101235.17
2023-02-11T06:07:35.501Z,101227.34
2023-02-11T06:08:39.314Z,101223.93
2023-02-11T06:09:41.665Z,101216.19
2023-02-11T06:10:45.211Z,101222.33
2023-02-11T06:11:47.134Z,101214.53
2023-02-11T06:12:48.998Z,101211.02
2023-02-11T06:13:51.217Z,101205.88
2023-02-11T06:14:53.303Z,101203.27
2023-02-11T06:15:59.762Z,101204.05
2023-02-11T06:17:02.389Z,101208.42
2023-02-11T06:18:04.955Z,101205.03
2023-02-11T06:19:06.986Z,101200.75
2023-02-11T06:20:10.628Z,101192.11
2023-02-11T06:21:12.953Z,101199.09
2023-02-11T06:22:14.830Z,101196.39
2023-02-11T06:23:16.698Z,101196.47
2023-02-11T06:24:38.260Z,101198.19
2023-02-11T06:25:22.434Z,101193.05
2023-02-11T06:26:25.438Z,101189.56
2023-02-11T06:27:30.003Z,101184.32
2023-02-11T06:28:32.849Z,101190.45
2023-02-11T06:29:35.457Z,101192.16
2023-02-11T06:30:37.650Z,101191.31
2023-02-11T06:31:40.104Z,101185.30
2023-02-11T06:32:44.919Z,101188.79
2023-02-11T06:33:46.078Z,101184.41
2023-02-11T06:34:47.964Z,101194.83
2023-02-11T06:35:50.710Z,101190.53
2023-02-11T06:36:53.167Z,101193.17
2023-02-11T06:37:56.187Z,101190.56
2023-02-11T06:38:59.132Z,101186.28
2023-02-11T06:40:01.140Z,101186.28
2023-02-11T06:41:03.302Z,101185.47
2023-02-11T06:42:07.847Z,101181.08
2023-02-11T06:43:09.211Z,101181.97
2023-02-11T06:44:11.213Z,101175.86
2023-02-11T06:45:13.102Z,101174.99
2023-02-11T06:46:15.842Z,101179.34
2023-02-11T06:47:18.004Z,101163.78
2023-02-11T06:48:20.780Z,101163.78
2023-02-11T06:49:22.769Z,101159.37
2023-02-11T06:50:24.903Z,101166.36
2023-02-11T06:51:26.888Z,101160.31
2023-02-11T06:52:28.990Z,101160.31
2023-02-11T06:53:33.684Z,101154.21
2023-02-11T06:54:35.599Z,101155.98
2023-02-11T06:55:37.506Z,101145.53
2023-02-11T06:56:40.670Z,101153.41
2023-02-11T06:57:42.712Z,101147.31
2023-02-11T06:58:46.141Z,101142.98
2023-02-11T06:59:49.638Z,101143.80
2023-02-11T07:00:51.915Z,101140.38
2023-02-11T07:01:53.851Z,101148.17
2023-02-11T07:02:55.853Z,101133.44
2023-02-11T07:03:58.229Z,101137.75
2023-02-11T07:05:00.246Z,101136.08
2023-02-11T07:06:04.255Z,101138.58
2023-02-11T07:07:06.464Z,101133.46
2023-02-11T07:08:08.740Z,101129.94
2023-02-11T07:09:10.616Z,101129.05
2023-02-11T07:10:12.911Z,101128.27
2023-02-11T07:11:20.656Z,101129.14
2023-02-11T07:12:23.708Z,101127.38
2023-02-11T07:13:25.881Z,101135.17
2023-02-11T07:14:30.663Z,101126.45
2023-02-11T07:15:32.601Z,101123.94
2023-02-11T07:16:35.360Z,101124.83
2023-02-11T07:17:37.592Z,101123.09
2023-02-11T07:18:40.082Z,101129.14
2023-02-11T07:19:41.989Z,101123.06
2023-02-11T07:20:44.671Z,101129.98
2023-02-11T07:21:47.028Z,101132.64
2023-02-11T07:22:49.046Z,101132.66
2023-02-11T07:23:51.261Z,101128.35
2023-02-11T07:24:53.296Z,101124.03
2023-02-11T07:25:55.302Z,101122.30
2023-02-11T07:26:57.776Z,101131.86
2023-02-11T07:27:59.767Z,101127.45
2023-02-11T07:29:02.662Z,101127.45
2023-02-11T07:30:07.531Z,101120.50
2023-02-11T07:31:13.823Z,101124.85
2023-02-11T07:32:15.873Z,101122.23
2023-02-11T07:33:18.198Z,101125.70
2023-02-11T07:34:22.780Z,101125.70
2023-02-11T07:35:25.972Z,101126.61
2023-02-11T07:36:30.508Z,101115.36
2023-02-11T07:37:35.764Z,101117.11
2023-02-11T07:38:39.149Z,101127.47
2023-02-11T07:39:41.152Z,101130.08
2023-02-11T07:40:43.252Z,101126.64
2023-02-11T07:41:45.149Z,101124.05
2023-02-11T07:42:47.242Z,101117.12
2023-02-11T07:43:49.631Z,101124.04
2023-02-11T07:44:52.208Z,101124.92
2023-02-11T07:45:55.404Z,101124.03
2023-02-11T07:46:59.507Z,101115.34
2023-02-11T07:48:01.402Z,101114.48
2023-02-11T07:49:04.649Z,101118.84
2023-02-11T07:50:07.239Z,101115.41
2023-02-11T07:51:15.540Z,101120.63
2023-02-11T07:52:17.821Z,101121.44
2023-02-11T07:53:19.718Z,101115.40
2023-02-11T07:54:21.851Z,101117.12
2023-02-11T07:55:23.916Z,101113.69
2023-02-11T07:56:29.050Z,101113.69
2023-02-11T07:57:31.094Z,101106.73
2023-02-11T07:58:33.842Z,101099.78
2023-02-11T07:59:37.240Z,101103.23
2023-02-11T08:00:39.601Z,101087.63
2023-02-11T08:01:41.574Z,101088.50
2023-02-11T08:02:44.312Z,101090.23
2023-02-11T08:03:46.337Z,101090.19
2023-02-11T08:04:48.742Z,101090.22
2023-02-11T08:05:50.976Z,101085.02
2023-02-11T08:06:53.444Z,101085.02
2023-02-11T08:07:55.508Z,101070.25
2023-02-11T08:08:58.226Z,101068.54
2023-02-11T08:10:00.230Z,101075.46
2023-02-11T08:11:17.722Z,101071.13
2023-02-11T08:12:19.640Z,101068.55
2023-02-11T08:13:21.540Z,101065.05
2023-02-11T08:14:23.469Z,101065.05
2023-02-11T08:15:25.586Z,101066.75
2023-02-11T08:16:30.750Z,101074.56
2023-02-11T08:17:35.104Z,101067.64
2023-02-11T08:18:37.122Z,101066.75
2023-02-11T08:19:39.188Z,101066.79
2023-02-11T08:20:41.670Z,101062.42
2023-02-11T08:21:43.882Z,101064.18
2023-02-11T08:22:45.782Z,101054.65
2023-02-11T08:23:48.163Z,101051.20
2023-02-11T08:24:52.325Z,101051.20
2023-02-11T08:25:54.036Z,101047.73
2023-02-11T08:26:56.335Z,101045.98
2023-02-11T08:28:01.001Z,101051.20
2023-02-11T08:29:09.750Z,101043.37
2023-02-11T08:30:13.489Z,101043.37
2023-02-11T08:31:19.407Z,101036.45
2023-02-11T08:32:22.256Z,101033.83
2023-02-11T08:33:24.290Z,101036.44
2023-02-11T08:34:26.165Z,101035.58
2023-02-11T08:35:28.282Z,101032.97
2023-02-11T08:37:45.745Z,101039.91
2023-02-11T08:38:50.100Z,101041.66
2023-02-11T08:39:52.136Z,101040.77
2023-02-11T08:40:54.146Z,101044.27
2023-02-11T08:41:56.124Z,101036.44
2023-02-11T08:42:58.015Z,101033.84
2023-02-11T08:44:00.790Z,101033.80
2023-02-11T08:45:03.085Z,101038.16
2023-02-11T08:46:05.362Z,101039.91
2023-02-11T08:47:07.436Z,101037.30
2023-02-11T08:48:09.302Z,101033.84
2023-02-11T08:49:11.216Z,101037.30
2023-02-11T08:50:13.436Z,101039.91
2023-02-11T08:51:20.825Z,101031.23
2023-02-11T08:52:22.776Z,101033.83
2023-02-11T08:53:24.824Z,101021.69
2023-02-11T08:54:27.177Z,101026.87
2023-02-11T08:55:31.568Z,101027.77
2023-02-11T08:56:33.988Z,101021.66
2023-02-11T08:57:35.983Z,101027.77
2023-02-11T08:58:38.673Z,101027.77
2023-02-11T08:59:40.607Z,101026.87
2023-02-11T09:00:43.184Z,101020.80
2023-02-11T09:01:45.289Z,101024.29
2023-02-11T09:02:47.236Z,101016.47
2023-02-11T09:03:49.577Z,101017.33
2023-02-11T09:04:51.901Z,101015.59
2023-02-11T09:05:53.908Z,101021.69
2023-02-11T09:06:58.876Z,101012.12
2023-02-11T09:08:00.841Z,101011.23
2023-02-11T09:09:03.435Z,101012.98
2023-02-11T09:10:06.493Z,101005.17
2023-02-11T09:11:09.839Z,101009.52
2023-02-11T09:12:11.858Z,101009.52
2023-02-11T09:13:13.878Z,101016.45
2023-02-11T09:14:19.341Z,101006.91
2023-02-11T09:15:21.348Z,101013.84
2023-02-11T09:16:29.927Z,101015.59
2023-02-11T09:17:31.964Z,101005.16
2023-02-11T09:18:34.036Z,101004.30
2023-02-11T09:19:35.968Z,101006.91
2023-02-11T09:20:38.882Z,100998.20
2023-02-11T09:21:40.882Z,100993.88
2023-02-11T09:22:43.318Z,100992.16
2023-02-11T09:23:46.113Z,100985.20
2023-02-11T09:24:48.047Z,100982.60
2023-02-11T09:25:50.342Z,100979.11
2023-02-11T09:26:52.897Z,100969.57
2023-02-11T09:27:56.412Z,100965.22
2023-02-11T09:28:59.082Z,100965.22
2023-02-11T09:30:01.344Z,100961.72
2023-02-11T09:31:11.838Z,100958.26
2023-02-11T09:32:14.050Z,100957.41
2023-02-11T09:33:16.467Z,100956.55
2023-02-11T09:34:18.360Z,100959.15
2023-02-11T09:35:21.336Z,100961.75
2023-02-11T09:36:27.022Z,100959.15
2023-02-11T09:37:30.347Z,100953.94
2023-02-11T09:38:33.031Z,100960.86
2023-02-11T09:39:34.960Z,100962.61
2023-02-11T09:40:42.637Z,100953.05
2023-02-11T09:41:57.477Z,100958.25
2023-02-11T09:43:14.785Z,100950.44
2023-02-11T09:44:26.209Z,100954.80
2023-02-11T09:45:29.139Z,100952.19
2023-02-11T09:46:37.975Z,100947.83
2023-02-11T09:47:43.935Z,100946.98
2023-02-11T09:48:49.726Z,100955.64
2023-02-11T09:50:19.369Z,100952.19
2023-02-11T09:51:37.455Z,100947.83
2023-02-11T09:53:04.785Z,100942.63
2023-02-11T09:55:22.051Z,100941.72
2023-02-11T09:56:24.562Z,100945.22
2023-02-11T09:57:30.398Z,100937.39
2023-02-11T09:58:35.316Z,100927.83
2023-02-11T09:59:37.460Z,100929.57
2023-02-11T10:00:43.401Z,100921.75
2023-02-11T10:01:49.247Z,100924.38
2023-02-11T10:03:10.182Z,100917.41
2023-02-11T10:04:27.848Z,100923.52
2023-02-11T10:05:45.459Z,100912.20
2023-02-11T10:06:54.394Z,100920.89
2023-02-11T10:08:17.025Z,100918.30
2023-02-11T10:09:45.328Z,100915.70
2023-02-11T10:10:54.264Z,100910.48
2023-02-11T10:12:00.892Z,100908.73
2023-02-11T10:13:30.453Z,100907.89
2023-02-11T10:15:00.647Z,100900.06
2023-02-11T10:17:26.407Z,100892.17
2023-02-11T10:18:36.127Z,100897.39
2023-02-11T10:19:51.642Z,100889.58
2023-02-11T10:21:09.338Z,100889.62
2023-02-11T10:22:24.202Z,100884.36
2023-02-11T10:23:28.395Z,100882.64
2023-02-11T10:24:31.120Z,100871.33
2023-02-11T10:25:45.144Z,100868.73
2023-02-11T10:26:47.288Z,100870.45
2023-02-11T10:27:50.915Z,100866.94
2023-02-11T10:28:54.910Z,100866.06
2023-02-11T10:30:00.664Z,100860.02
2023-02-11T10:31:06.703Z,100860.03
2023-02-11T10:32:30.751Z,100851.36
2023-02-11T10:33:48.764Z,100855.67
2023-02-11T10:34:53.780Z,100853.05
2023-02-11T10:35:56.729Z,100862.59
2023-02-11T10:36:59.166Z,100853.02
2023-02-11T10:38:01.057Z,100843.42
2023-02-11T10:39:16.235Z,100845.16
2023-02-11T10:41:34.956Z,100846.02
2023-02-11T10:42:37.377Z,100841.66
2023-02-11T10:43:41.642Z,100846.02
2023-02-11T10:44:47.425Z,100840.81
2023-02-11T10:45:54.123Z,100833.86
2023-02-11T10:46:58.806Z,100835.64
2023-02-11T10:48:03.918Z,100830.37
2023-02-11T10:49:05.940Z,100830.34
2023-02-11T10:50:29.213Z,100831.17
2023-02-11T10:51:34.652Z,100826.00
2023-02-11T10:52:36.838Z,100828.61
2023-02-11T10:53:39.358Z,100832.95
2023-02-11T10:54:41.572Z,100835.60
2023-02-11T10:55:55.257Z,100821.69
2023-02-11T10:56:59.104Z,100823.37
2023-02-11T10:58:02.723Z,100825.09
2023-02-11T10:59:25.111Z,100821.69
2023-02-11T11:00:39.339Z,100818.16
2023-02-11T11:01:45.194Z,100811.12
2023-02-11T11:04:03.341Z,100802.41
2023-02-11T11:05:08.207Z,100807.70
2023-02-11T11:06:12.628Z,100801.53
2023-02-11T11:07:20.784Z,100800.65
2023-02-11T11:08:38.547Z,100799.91
2023-02-11T11:09:49.942Z,100794.66
2023-02-11T11:11:04.786Z,100781.56
2023-02-11T11:12:28.746Z,100780.66
2023-02-11T11:13:34.149Z,100780.72
2023-02-11T11:14:36.283Z,100781.64
2023-02-11T11:15:38.389Z,100772.87
2023-02-11T11:16:44.458Z,100767.59
2023-02-11T11:17:47.608Z,100765.09
2023-02-11T11:18:52.734Z,100764.98
2023-02-11T11:20:15.188Z,100762.30
2023-02-11T11:21:32.974Z,100760.50
2023-02-11T11:22:35.068Z,100754.36
2023-02-11T11:23:41.272Z,100753.44
2023-02-11T11:24:47.726Z,100748.19
2023-02-11T11:27:22.716Z,100748.98
2023-02-11T11:28:28.610Z,100739.66
2023-02-11T11:29:40.501Z,100744.84
2023-02-11T11:30:43.368Z,100740.44
2023-02-11T11:31:57.766Z,100733.56
2023-02-11T11:33:00.940Z,100728.27
2023-02-11T11:34:07.144Z,100725.66
2023-02-11T11:35:21.799Z,100723.94
2023-02-11T11:36:36.712Z,100717.77
2023-02-11T11:37:39.029Z,100709.85
2023-02-11T11:38:53.789Z,100708.98
2023-02-11T11:40:14.560Z,100715.27
2023-02-11T11:41:20.136Z,100711.86
2023-02-11T11:42:34.055Z,100712.69
2023-02-11T11:43:36.199Z,100703.90
2023-02-11T11:44:38.189Z,100714.31
2023-02-11T11:47:12.525Z,100703.05
2023-02-11T11:48:35.760Z,100704.03
2023-02-11T11:49:58.894Z,100707.52
2023-02-11T11:51:07.566Z,100696.07
2023-02-11T11:52:42.192Z,100701.40
2023-02-11T11:54:06.278Z,100693.69
2023-02-11T11:55:17.709Z,100686.81
2023-02-11T11:56:35.890Z,100683.33
2023-02-11T11:57:39.422Z,100687.68
2023-02-11T11:58:42.161Z,100675.38
2023-02-11T11:59:44.874Z,100674.45
2023-02-11T12:00:53.537Z,100663.95
2023-02-11T12:02:02.341Z,100657.80
2023-02-11T12:04:50.442Z,100654.13
2023-02-11T12:06:05.288Z,100653.45
2023-02-11T12:07:11.056Z,100655.97
2023-02-11T12:08:22.888Z,100654.25
2023-02-11T12:09:43.910Z,100650.77
2023-02-11T12:10:53.400Z,100645.46
2023-02-11T12:12:05.126Z,100638.72
2023-02-11T12:13:08.859Z,100642.22
2023-02-11T12:14:39.468Z,100633.50
2023-02-11T12:16:03.158Z,100634.38
2023-02-11T12:17:27.051Z,100631.75
2023-02-11T12:18:51.272Z,100625.50
2023-02-11T12:20:03.390Z,100622.09
2023-02-11T12:21:20.570Z,100620.23
2023-02-11T12:22:26.461Z,100614.27
2023-02-11T12:23:53.279Z,100623.95
2023-02-11T12:25:18.952Z,100613.44
2023-02-11T12:27:41.876Z,100606.39
2023-02-11T12:29:05.910Z,100604.70
2023-02-11T12:30:15.122Z,100601.25
2023-02-11T12:31:38.953Z,100596.83
2023-02-11T12:32:56.849Z,100590.00
2023-02-11T12:34:08.136Z,100592.53
2023-02-11T12:35:38.380Z,100586.39
2023-02-11T12:37:06.809Z,100599.39
2023-02-11T12:38:18.027Z,100587.34
2023-02-11T12:39:49.673Z,100589.15
2023-02-11T12:41:24.836Z,100579.44
2023-02-11T12:42:46.064Z,100575.09
2023-02-11T12:43:49.910Z,100575.15
2023-02-11T12:45:13.533Z,100565.67
2023-02-11T12:46:25.601Z,100569.96
2023-02-11T12:47:48.550Z,100573.47
2023-02-11T12:49:11.275Z,100568.17
2023-02-11T12:50:27.226Z,100567.35
2023-02-11T12:51:39.087Z,100569.96
2023-02-11T12:53:03.034Z,100569.03